Stone Cabin, Nevada Weather observations

Data are for observation ending at time listed.
 Day   Time    Ave.   Ave.  Ave.  Vector   Max.   Stn.    Total    Solar   Ave.  
  of    of     Air    Rel.  Wind   Wind    Wind   Baro.  Precip.   Rad.    Soil  
Year   Day     Temp.  Hum.  Speed  Dir.    Gust   Pres.                    Temp. 
2016   (PST)    F      %     mph   deg.    mph     mb.     in.     W/m2     F   
------------------------------------------------------------------------------
 126    0:00   47.9    44    1.2   301      3.6    812     0.00       0    53.7
 126    1:00   45.0    50    2.1   332      3.7    811     0.00       0    53.2
 126    2:00   42.4    52    1.9   304      3.4    814     0.00       0    52.8
 126    3:00   41.8    52    1.8   271      3.7    816     0.00       0    52.3
 126    4:00   39.6    57    2.3   266      4.2    816     0.00       0    51.9
 126    5:00   38.2    61    1.8   280      4.3    816     0.00       1    51.4
 126    6:00   38.5    61    2.0   306      3.7    816     0.00      42    51.0
 126    7:00   47.2    48    2.7   315      6.6    816     0.00     222    50.7
 126    8:00   59.2    32    1.9    86      8.1    816     0.00     347    51.2
 126    9:00   63.8    24    2.6   166     10.0    815     0.00     282    52.0
 126   10:00   66.1    20    6.7   154     26.2    815     0.00     554    52.6
 126   11:00   67.3    20    7.6   155     21.5    814     0.00     702    53.2
 126   12:00   68.8    18    7.5   146     16.8    814     0.00     965    54.1
 126   13:00   68.7    18    8.2   158     21.2    812     0.00     744    55.0
 126   14:00   68.3    15    7.8   154     18.7    812     0.00     657    55.3
 126   15:00   66.3    18    7.8   161     21.2    812     0.00     382    55.5
 126   16:00   62.8    22    7.1   173     22.3    811     0.00     115    55.4
 126   17:00   60.3    26    6.9   193     17.8    811     0.00      81    55.0
 126   18:00   58.3    29    7.1   205     17.6    811     0.00      39    54.7
 126   19:00   55.4    34    2.5   205     10.3    812     0.00       6    54.4
 126   20:00   51.6    45    4.2   189     20.0    812     0.00       0    54.1
 126   21:00   49.5    53    3.9   195     12.5    813     0.00       0    53.6
 126   22:00   47.4    56    1.9   183      5.1    814     0.00       0    53.3
 126   23:00   46.1    57    1.5    34      5.0    813     0.00       0    52.9

Return to Stone Cabin, Nevada graphs page.


Western Regional Climate Center,wrcc@dri.edu